Time;durP1;ratioP1;P1;durP2;ratioP2;P2;SDS_P1;SDS_P2;PMS_P1;PMS_P2;Temp;Humidity;BMP_temperature;BMP_pressure;BME280_temperature;BME280_humidity;BME280_pressure;Samples;Min_cycle;Max_cycle;Signal;HPM_P1;HPM_P2
2022/07/13 03:01:28;;;;;;;;;;;20.90;99.90;;;;;;6242590;22;20098;-83
2022/07/13 03:03:53;;;;;;;8.68;5.47;;;20.90;99.90;;;;;;6282586;22;20235;-82
2022/07/13 03:06:19;;;;;;;9.02;5.32;;;20.90;99.90;;;;;;6309158;22;20007;-83
2022/07/13 03:08:45;;;;;;;8.52;5.25;;;20.90;99.90;;;;;;6282464;22;20014;-82
2022/07/13 03:11:10;;;;;;;7.60;5.35;;;20.80;99.90;;;;;;6269730;22;20008;-83
2022/07/13 03:13:36;;;;;;;8.00;5.60;;;20.80;99.90;;;;;;6252030;22;20316;-82
2022/07/13 03:16:01;;;;;;;10.63;5.57;;;20.80;99.90;;;;;;6279092;22;20008;-83
2022/07/13 03:18:27;;;;;;;10.00;5.63;;;20.80;99.90;;;;;;6279168;22;20333;-82
2022/07/13 03:20:53;;;;;;;7.38;5.47;;;20.80;99.90;;;;;;6279166;22;20015;-83
2022/07/13 03:23:18;;;;;;;6.05;5.20;;;20.70;99.90;;;;;;6280098;22;20008;-82
2022/07/13 03:25:44;;;;;;;6.35;4.93;;;20.80;99.90;;;;;;6252563;22;20016;-83
2022/07/13 03:28:10;;;;;;;6.55;5.15;;;20.70;99.90;;;;;;6280239;22;20392;-82
2022/07/13 03:30:35;;;;;;;6.97;4.72;;;20.70;99.90;;;;;;6252587;22;20086;-81
2022/07/13 03:33:01;;;;;;;6.85;5.40;;;20.70;99.90;;;;;;6253273;22;20047;-82
2022/07/13 03:35:27;;;;;;;5.38;4.65;;;20.70;99.90;;;;;;6252685;22;20020;-82
2022/07/13 03:37:52;;;;;;;6.30;4.82;;;20.60;99.90;;;;;;6279927;22;20007;-81
2022/07/13 03:40:18;;;;;;;6.18;4.80;;;20.60;99.90;;;;;;6252066;22;20012;-82
2022/07/13 03:42:44;;;;;;;7.32;4.85;;;20.60;99.90;;;;;;6278815;22;20053;-82
2022/07/13 03:45:10;;;;;;;6.80;5.13;;;20.60;99.90;;;;;;6253271;22;20019;-84
2022/07/13 03:47:35;;;;;;;7.10;5.18;;;20.60;99.90;;;;;;6279431;22;20468;-83
2022/07/13 03:50:02;;;;;;;7.70;4.85;;;20.60;99.90;;;;;;6252517;22;20011;-83
2022/07/13 03:52:28;;;;;;;7.18;4.90;;;20.60;99.90;;;;;;6279721;22;20018;-82
2022/07/13 03:54:53;;;;;;;5.50;4.60;;;20.60;99.90;;;;;;6252915;22;20011;-83
2022/07/13 03:57:19;;;;;;;5.97;5.13;;;20.60;99.90;;;;;;6279907;22;20000;-82
2022/07/13 03:59:45;;;;;;;5.53;4.60;;;20.50;99.90;;;;;;6252168;22;20015;-83
2022/07/13 04:02:10;;;;;;;6.93;5.22;;;20.50;99.90;;;;;;6252244;22;20018;-82
2022/07/13 04:04:36;;;;;;;6.72;5.20;;;20.50;99.90;;;;;;6252048;22;20016;-83
2022/07/13 04:07:02;;;;;;;6.85;5.65;;;20.50;99.90;;;;;;6252063;22;20035;-83
2022/07/13 04:09:27;;;;;;;7.35;6.18;;;20.50;99.90;;;;;;6279572;22;20007;-83
2022/07/13 04:11:53;;;;;;;9.18;5.57;;;20.40;99.90;;;;;;6252393;22;20024;-82
2022/07/13 04:14:19;;;;;;;10.07;6.13;;;20.40;99.90;;;;;;6279100;22;20015;-82
2022/07/13 04:16:45;;;;;;;10.45;6.60;;;20.40;99.90;;;;;;6279436;22;20008;-83
2022/07/13 04:19:11;;;;;;;9.18;6.20;;;20.40;99.90;;;;;;6279389;22;20019;-84
2022/07/13 04:21:36;;;;;;;10.98;6.10;;;20.30;99.90;;;;;;6251857;22;20020;-83
2022/07/13 04:24:02;;;;;;;7.97;6.35;;;20.30;99.90;;;;;;6279303;22;20388;-82
2022/07/13 04:26:29;;;;;;;9.73;6.28;;;20.30;99.90;;;;;;6251444;22;20043;-83
2022/07/13 04:28:55;;;;;;;7.72;6.20;;;20.30;99.90;;;;;;6278538;22;20012;-84
2022/07/13 04:31:21;;;;;;;8.18;5.97;;;20.30;99.90;;;;;;6252474;22;20015;-82
2022/07/13 04:33:46;;;;;;;8.32;5.90;;;20.30;99.90;;;;;;6279041;22;20329;-82
2022/07/13 04:36:12;;;;;;;7.05;6.20;;;20.30;99.90;;;;;;6252726;22;20014;-82
2022/07/13 04:38:37;;;;;;;9.07;6.63;;;20.30;99.90;;;;;;6278884;22;20003;-83
2022/07/13 04:41:03;;;;;;;7.38;6.22;;;20.30;99.90;;;;;;6279040;22;20022;-81
2022/07/13 04:43:29;;;;;;;7.55;5.60;;;20.30;99.90;;;;;;6251706;22;20018;-83
2022/07/13 04:45:54;;;;;;;9.38;5.78;;;20.30;99.90;;;;;;6279020;22;20019;-83
2022/07/13 04:48:20;;;;;;;8.70;5.65;;;20.40;99.90;;;;;;6278139;22;20004;-83
2022/07/13 04:50:46;;;;;;;7.30;6.22;;;20.30;99.90;;;;;;6251477;22;20047;-84
2022/07/13 04:53:11;;;;;;;7.38;5.72;;;20.40;99.90;;;;;;6279067;22;20015;-83
2022/07/13 04:55:38;;;;;;;7.90;5.47;;;20.40;99.90;;;;;;6252165;22;20015;-83
2022/07/13 04:58:04;;;;;;;8.05;6.20;;;20.40;99.90;;;;;;6252130;22;20026;-82
2022/07/13 05:00:29;;;;;;;9.13;5.40;;;20.40;99.90;;;;;;6251329;22;20015;-84
2022/07/13 05:02:55;;;;;;;9.57;6.20;;;20.40;99.90;;;;;;6251202;22;20007;-83
2022/07/13 05:05:21;;;;;;;8.68;5.88;;;20.40;99.90;;;;;;6251053;22;20153;-82
2022/07/13 05:07:47;;;;;;;10.27;6.50;;;20.50;99.90;;;;;;6277789;22;20380;-82
2022/07/13 05:10:13;;;;;;;7.18;5.78;;;20.40;99.90;;;;;;6250221;22;20015;-83
2022/07/13 05:12:40;;;;;;;7.40;6.05;;;20.40;99.90;;;;;;6250687;22;20399;-84
2022/07/13 05:15:10;;;;;;;8.10;5.25;;;20.50;99.90;;;;;;6250762;22;20011;-83
2022/07/13 05:17:36;;;;;;;8.35;5.97;;;20.50;99.90;;;;;;6250882;22;20019;-81
2022/07/13 05:20:03;;;;;;;11.77;6.97;;;20.50;99.90;;;;;;6225476;22;20031;-81
2022/07/13 05:22:28;;;;;;;8.05;6.65;;;20.60;99.90;;;;;;6250590;22;20333;-83
2022/07/13 05:24:55;;;;;;;9.50;5.88;;;20.60;99.90;;;;;;6250720;22;20040;-82
2022/07/13 05:27:21;;;;;;;9.75;6.85;;;20.60;99.90;;;;;;6250781;22;20014;-82
2022/07/13 05:29:47;;;;;;;11.07;7.15;;;20.60;99.90;;;;;;6277973;22;20007;-82
2022/07/13 05:32:13;;;;;;;10.48;6.50;;;20.70;99.90;;;;;;6250061;22;20438;-82
2022/07/13 05:34:38;;;;;;;10.70;6.88;;;20.70;99.90;;;;;;6277715;22;20016;-83
2022/07/13 05:37:04;;;;;;;7.95;6.20;;;20.70;99.90;;;;;;6250592;22;20016;-83
2022/07/13 05:39:30;;;;;;;8.30;6.53;;;20.70;99.90;;;;;;6250746;22;20337;-85
2022/07/13 05:41:55;;;;;;;10.20;6.55;;;20.80;99.90;;;;;;6250463;22;20344;-83
2022/07/13 05:44:21;;;;;;;11.55;7.43;;;20.80;99.90;;;;;;6250595;22;20065;-84
2022/07/13 05:46:47;;;;;;;10.77;6.90;;;20.80;99.90;;;;;;6251703;22;20421;-84
2022/07/13 05:49:12;;;;;;;8.70;6.95;;;20.90;99.90;;;;;;6251905;22;20019;-83
2022/07/13 05:51:38;;;;;;;8.10;6.90;;;20.90;99.90;;;;;;6252337;22;20066;-86
2022/07/13 05:54:03;;;;;;;11.45;7.28;;;20.90;99.90;;;;;;6227278;22;20046;-80
2022/07/13 05:56:30;;;;;;;9.48;7.68;;;20.90;99.90;;;;;;6253254;22;20314;-82
2022/07/13 05:58:56;;;;;;;11.45;8.20;;;20.90;99.90;;;;;;6226136;22;20023;-83
2022/07/13 06:01:22;;;;;;;11.60;7.20;;;21.00;99.90;;;;;;6252083;22;20072;-82
2022/07/13 06:03:47;;;;;;;11.65;8.05;;;21.00;99.90;;;;;;6278726;22;20113;-83
2022/07/13 06:06:13;;;;;;;11.38;8.00;;;21.00;99.90;;;;;;6278851;22;20027;-81
2022/07/13 06:08:39;;;;;;;8.93;7.63;;;21.00;99.90;;;;;;6252387;22;20016;-83
2022/07/13 06:11:04;;;;;;;12.70;7.88;;;21.10;99.90;;;;;;6278932;22;20338;-81
2022/07/13 06:13:30;;;;;;;12.45;7.68;;;21.10;99.90;;;;;;6251938;22;20004;-82
2022/07/13 06:15:57;;;;;;;11.18;8.23;;;21.10;99.90;;;;;;6225592;22;20386;-82
2022/07/13 06:18:23;;;;;;;14.00;8.98;;;21.10;99.90;;;;;;6251376;22;20019;-78
2022/07/13 06:20:49;;;;;;;16.45;9.10;;;21.20;99.90;;;;;;6279734;22;20336;-83
2022/07/13 06:23:16;;;;;;;16.17;8.63;;;21.20;99.90;;;;;;6253043;22;20083;-82
2022/07/13 06:25:45;;;;;;;11.68;8.57;;;21.30;99.90;;;;;;6280175;22;20050;-83
2022/07/13 06:28:11;;;;;;;19.75;9.57;;;21.30;99.90;;;;;;6280251;22;20011;-84
2022/07/13 06:30:37;;;;;;;13.77;8.75;;;21.40;99.90;;;;;;6280060;22;20008;-83
2022/07/13 06:33:02;;;;;;;14.27;9.45;;;21.50;99.90;;;;;;6252633;22;20022;-81
2022/07/13 06:35:29;;;;;;;13.00;8.68;;;21.60;99.90;;;;;;6252292;22;20016;-83
2022/07/13 06:37:55;;;;;;;13.13;9.38;;;21.60;99.90;;;;;;6280473;22;20059;-82
2022/07/13 06:40:21;;;;;;;14.63;9.18;;;21.70;99.90;;;;;;6252137;22;20433;-83
2022/07/13 06:42:47;;;;;;;13.40;9.27;;;21.80;99.90;;;;;;6252531;22;20090;-84
2022/07/13 06:45:13;;;;;;;12.32;9.18;;;21.90;99.90;;;;;;6279522;22;20463;-82
2022/07/13 06:47:39;;;;;;;15.15;9.85;;;22.00;99.90;;;;;;6252140;22;20509;-82
2022/07/13 06:50:06;;;;;;;18.42;11.20;;;22.00;99.90;;;;;;6279029;22;20436;-81
2022/07/13 06:52:32;;;;;;;14.00;9.15;;;21.90;99.90;;;;;;6251623;22;20015;-82
2022/07/13 06:54:58;;;;;;;12.82;9.23;;;21.90;99.90;;;;;;6280216;22;20008;-82
2022/07/13 06:57:24;;;;;;;12.43;9.55;;;21.90;99.90;;;;;;6279162;22;20015;-82
2022/07/13 06:59:49;;;;;;;12.55;9.32;;;21.90;99.90;;;;;;6251862;22;20456;-80
2022/07/13 07:02:15;;;;;;;22.20;10.48;;;21.90;99.90;;;;;;6251322;22;20456;-83
2022/07/13 07:04:40;;;;;;;13.80;9.82;;;21.90;99.90;;;;;;6251942;22;20344;-82
2022/07/13 07:07:06;;;;;;;76.70;15.90;;;21.90;99.90;;;;;;6278885;22;20003;-83
2022/07/13 07:09:32;;;;;;;39.92;12.32;;;21.90;99.90;;;;;;6251585;22;20341;-82
2022/07/13 07:11:58;;;;;;;18.63;9.85;;;22.00;99.90;;;;;;6251877;22;20073;-83
2022/07/13 07:14:24;;;;;;;13.77;9.50;;;22.00;99.90;;;;;;6227096;22;20015;-82
2022/07/13 07:16:49;;;;;;;11.93;9.55;;;22.00;99.90;;;;;;6251710;22;20022;-81
2022/07/13 07:19:15;;;;;;;12.35;8.93;;;22.00;99.90;;;;;;6252215;22;20156;-82
2022/07/13 07:21:40;;;;;;;13.80;7.88;;;22.00;99.90;;;;;;6252391;22;20011;-81
2022/07/13 07:24:06;;;;;;;16.02;9.10;;;22.10;99.90;;;;;;6251048;22;20510;-82
2022/07/13 07:26:32;;;;;;;12.75;8.23;;;22.10;99.90;;;;;;6279690;22;20011;-81
2022/07/13 07:28:59;;;;;;;14.32;9.00;;;22.10;99.90;;;;;;6251314;22;20027;-81
2022/07/13 07:31:25;;;;;;;12.38;8.38;;;22.10;99.90;;;;;;6278797;22;20012;-83
2022/07/13 07:33:51;;;;;;;13.65;8.18;;;22.20;99.90;;;;;;6251661;22;20007;-82
2022/07/13 07:36:17;;;;;;;9.75;8.02;;;22.20;99.90;;;;;;6251486;22;20467;-82
2022/07/13 07:38:44;;;;;;;12.00;8.27;;;22.30;99.90;;;;;;6251862;22;20011;-81
2022/07/13 07:41:10;;;;;;;14.02;9.02;;;22.30;99.90;;;;;;6226338;22;20510;-82
2022/07/13 07:43:39;;;;;;;10.15;7.88;;;22.30;99.90;;;;;;6251818;22;20015;-82
2022/07/13 07:46:05;;;;;;;12.07;8.80;;;22.30;99.90;;;;;;6278981;22;20015;-80
2022/07/13 07:48:31;;;;;;;12.00;8.52;;;22.30;99.90;;;;;;6250825;22;20146;-83
2022/07/13 07:50:57;;;;;;;13.65;8.20;;;22.40;99.90;;;;;;6251902;22;20008;-84
2022/07/13 07:53:23;;;;;;;12.13;8.70;;;22.40;99.90;;;;;;6251792;22;20020;-83
2022/07/13 07:55:48;;;;;;;13.63;8.52;;;22.50;99.90;;;;;;6278674;22;20065;-84
2022/07/13 07:58:14;;;;;;;13.25;8.30;;;22.50;99.90;;;;;;6251300;22;20098;-85
2022/07/13 08:00:41;;;;;;;15.43;8.52;;;22.60;99.90;;;;;;6251440;22;20022;-83
2022/07/13 08:03:07;;;;;;;15.05;9.15;;;22.60;99.90;;;;;;6252119;22;20063;-82
2022/07/13 08:05:33;;;;;;;10.52;8.27;;;22.70;99.90;;;;;;6252356;22;20086;-82
2022/07/13 08:07:59;;;;;;;11.20;8.18;;;22.70;99.90;;;;;;6251284;22;20008;-83
2022/07/13 08:10:24;;;;;;;14.05;6.93;;;22.80;99.90;;;;;;6250772;22;20015;-84
2022/07/13 08:12:51;;;;;;;9.85;7.22;;;22.80;99.90;;;;;;6251623;22;20094;-83
2022/07/13 08:15:16;;;;;;;11.82;7.00;;;22.90;99.90;;;;;;6251362;22;20514;-83
2022/07/13 08:17:42;;;;;;;12.77;8.27;;;22.90;99.90;;;;;;6278965;22;20008;-83
2022/07/13 08:20:08;;;;;;;9.23;7.68;;;23.00;99.90;;;;;;6251644;22;20345;-82
2022/07/13 08:22:34;;;;;;;9.82;6.55;;;23.00;99.90;;;;;;6278707;22;20008;-82
2022/07/13 08:25:00;;;;;;;10.10;5.57;;;23.10;99.90;;;;;;6225930;22;20030;-82
2022/07/13 08:27:29;;;;;;;9.32;6.15;;;23.10;99.90;;;;;;6279127;22;20299;-81
2022/07/13 08:29:54;;;;;;;10.18;6.47;;;23.10;99.90;;;;;;6278394;22;20015;-81
2022/07/13 08:32:20;;;;;;;14.07;6.70;;;23.20;99.90;;;;;;6250876;22;20019;-83
2022/07/13 08:40:14;;;;;;;9.63;4.40;;;23.30;99.90;;;;;;6278637;22;20011;-82
2022/07/13 08:42:40;;;;;;;7.78;3.33;;;23.40;99.90;;;;;;6250326;22;20015;-83
2022/07/13 08:45:06;;;;;;;12.25;5.03;;;23.40;99.90;;;;;;6227683;22;20020;-83
2022/07/13 08:47:35;;;;;;;5.35;3.55;;;23.50;99.90;;;;;;6252424;22;20337;-83
2022/07/13 08:50:05;;;;;;;9.90;4.25;;;23.60;99.90;;;;;;6251584;22;20008;-84
2022/07/13 08:52:33;;;;;;;5.90;3.72;;;23.70;99.90;;;;;;6252870;22;20086;-83
2022/07/13 08:54:59;;;;;;;7.28;4.00;;;23.70;99.90;;;;;;6252408;22;20141;-85
2022/07/13 08:57:25;;;;;;;7.63;4.53;;;23.80;99.90;;;;;;6279331;22;20011;-83
2022/07/13 08:59:51;;;;;;;9.48;4.38;;;23.90;99.90;;;;;;6252951;22;20047;-83
2022/07/13 09:02:17;;;;;;;6.15;3.55;;;23.90;99.90;;;;;;6251614;22;20034;-84
2022/07/13 09:04:44;;;;;;;6.85;3.42;;;24.00;99.90;;;;;;6226192;22;20086;-83
2022/07/13 09:07:11;;;;;;;6.57;2.90;;;24.10;99.90;;;;;;6279028;22;20004;-81
2022/07/13 09:09:38;;;;;;;3.78;2.30;;;24.20;99.90;;;;;;6250891;22;20014;-85
2022/07/13 09:12:12;;;;;;;5.47;2.40;;;24.30;99.90;;;;;;6251225;22;20054;-85
2022/07/13 09:14:38;;;;;;;5.82;2.88;;;24.30;99.90;;;;;;6251435;22;20380;-84
2022/07/13 09:17:04;;;;;;;5.28;2.80;;;24.40;99.90;;;;;;6278490;22;20330;-81
2022/07/13 09:19:39;;;;;;;4.28;2.70;;;24.50;99.90;;;;;;6250931;22;20020;-83
2022/07/13 09:22:12;;;;;;;3.95;2.60;;;24.60;99.90;;;;;;6225922;22;20012;-83
2022/07/13 09:24:48;;;;;;;5.40;2.80;;;24.70;99.90;;;;;;6251092;22;20051;-85
2022/07/13 09:27:16;;;;;;;6.97;2.60;;;24.80;99.90;;;;;;6251772;22;20004;-83
2022/07/13 09:29:42;;;;;;;4.63;2.95;;;24.90;99.90;;;;;;6250916;22;20016;-84
2022/07/13 09:32:11;;;;;;;5.22;2.45;;;25.00;99.90;;;;;;6250249;22;20012;-83
2022/07/13 09:34:53;;;;;;;4.15;2.30;;;25.10;99.90;;;;;;6225653;22;20043;-83
2022/07/13 09:37:21;;;;;;;6.50;2.60;;;25.20;99.90;;;;;;6251790;22;20095;-84
2022/07/13 09:40:06;;;;;;;4.22;2.20;;;25.30;99.90;;;;;;6250859;22;20012;-83
2022/07/13 09:42:36;;;;;;;3.95;2.78;;;25.50;99.90;;;;;;6250695;22;20043;-84
2022/07/13 09:47:54;;;;;;;7.20;2.75;;;25.60;99.90;;;;;;6251070;22;20051;-81
2022/07/13 09:50:24;;;;;;;6.85;1.98;;;25.70;99.90;;;;;;6250653;22;20016;-82
2022/07/13 09:52:52;;;;;;;3.13;1.83;;;25.80;99.90;;;;;;6250973;22;20460;-84
2022/07/13 09:55:22;;;;;;;5.60;1.80;;;25.90;99.90;;;;;;6226481;22;20037;-81
2022/07/13 09:58:08;;;;;;;6.35;2.20;;;26.00;99.90;;;;;;6252472;22;20015;-82
2022/07/13 10:00:34;;;;;;;5.05;2.03;;;26.10;99.90;;;;;;6252336;22;20458;-83
2022/07/13 10:03:01;;;;;;;4.25;2.17;;;26.20;99.90;;;;;;6252054;22;20014;-84
2022/07/13 10:05:28;;;;;;;4.75;1.90;;;26.30;99.90;;;;;;6252436;22;20043;-83
2022/07/13 10:07:54;;;;;;;4.43;1.92;;;26.30;99.90;;;;;;6252198;22;20057;-83
2022/07/13 10:10:21;;;;;;;4.00;1.88;;;26.40;99.90;;;;;;6251956;22;20445;-82
2022/07/13 10:12:47;;;;;;;4.68;1.90;;;26.50;99.90;;;;;;6251819;22;20020;-76
2022/07/13 10:15:13;;;;;;;4.50;2.10;;;26.70;99.90;;;;;;6253036;22;20012;-85
2022/07/13 10:17:45;;;;;;;4.90;2.03;;;26.80;99.90;;;;;;6251993;22;20015;-82
2022/07/13 10:20:16;;;;;;;2.90;2.00;;;26.80;99.90;;;;;;6251756;22;20065;-82
2022/07/13 10:22:48;;;;;;;8.82;2.42;;;26.80;99.90;;;;;;6251792;22;20346;-82
2022/07/13 10:25:15;;;;;;;6.05;2.00;;;26.80;99.90;;;;;;6252172;22;20070;-81
2022/07/13 10:27:41;;;;;;;5.80;2.10;;;26.90;99.90;;;;;;6251519;22;20413;-82
2022/07/13 10:30:19;;;;;;;5.32;2.25;;;26.90;99.90;;;;;;6251840;22;20520;-83
2022/07/13 10:32:46;;;;;;;5.82;2.30;;;27.10;99.90;;;;;;6226345;22;20022;-83
2022/07/13 10:35:16;;;;;;;4.68;2.50;;;27.00;99.90;;;;;;6279198;22;20011;-82
2022/07/13 10:38:00;;;;;;;4.53;2.20;;;27.00;99.90;;;;;;6278773;22;20020;-85
2022/07/13 10:40:28;;;;;;;7.43;2.30;;;27.00;99.90;;;;;;6226878;22;20338;-83
2022/07/13 10:42:53;;;;;;;4.00;2.42;;;27.10;99.90;;;;;;6279272;22;20372;-85
2022/07/13 10:45:40;;;;;;;3.97;2.20;;;27.20;99.90;;;;;;6226980;22;20000;-83
2022/07/13 10:48:24;;;;;;;4.60;2.63;;;27.40;99.90;;;;;;6251944;22;20019;-85
2022/07/13 10:50:54;;;;;;;6.18;2.63;;;27.40;99.90;;;;;;6252442;22;20041;-85
2022/07/13 10:53:21;;;;;;;4.75;2.28;;;27.40;99.90;;;;;;6227429;22;20043;-84
2022/07/13 10:55:50;;;;;;;4.38;2.15;;;27.30;99.90;;;;;;6252753;22;20016;-84
2022/07/13 10:58:31;;;;;;;6.15;2.50;;;27.20;99.90;;;;;;6252750;22;20134;-83
2022/07/13 11:00:59;;;;;;;4.20;1.90;;;27.20;99.90;;;;;;6227242;22;20445;-84
2022/07/13 11:03:31;;;;;;;2.95;2.00;;;27.20;99.90;;;;;;6251826;22;20011;-85
2022/07/13 11:06:24;;;;;;;8.13;2.05;;;27.30;99.90;;;;;;6251717;22;20369;-85
2022/07/13 11:09:13;;;;;;;5.65;2.30;;;27.40;99.90;;;;;;6247687;22;20011;-82
2022/07/13 11:11:48;;;;;;;5.00;2.33;;;27.50;99.90;;;;;;6252072;22;20038;-80
2022/07/13 11:14:32;;;;;;;;;;;27.60;99.90;;;;;;6279822;22;20015;-82
2022/07/13 11:17:17;;;;;;;5.97;2.33;;;27.60;99.90;;;;;;6279245;22;19989;-80
2022/07/13 11:19:56;;;;;;;4.43;2.30;;;27.60;99.90;;;;;;6251297;22;20011;-81
2022/07/13 11:22:23;;;;;;;3.88;2.22;;;27.30;99.90;;;;;;6279154;22;20012;-82
2022/07/13 11:25:15;;;;;;;6.85;2.40;;;27.30;99.90;;;;;;6251196;22;20417;-83
2022/07/13 11:27:50;;;;;;;7.75;2.67;;;27.00;99.90;;;;;;6252443;22;20012;-83
2022/07/13 11:30:27;;;;;;;5.38;2.47;;;26.90;99.90;;;;;;6226505;22;20059;-85
2022/07/13 11:32:53;;;;;;;5.85;3.10;;;26.60;99.90;;;;;;6225601;22;20022;-84
2022/07/13 11:35:20;;;;;;;4.68;3.22;;;26.50;99.90;;;;;;6252032;22;20058;-81
2022/07/13 11:37:46;;;;;;;6.05;3.45;;;26.30;99.90;;;;;;6252109;22;20476;-85
2022/07/13 11:40:29;;;;;;;4.55;3.13;;;26.30;99.90;;;;;;6251934;22;20086;-82
2022/07/13 11:42:58;;;;;;;5.18;3.15;;;26.40;99.90;;;;;;6251712;22;20011;-85
2022/07/13 11:45:31;;;;;;;5.90;2.92;;;26.60;99.90;;;;;;6278566;22;20015;-83
2022/07/13 11:48:04;;;;;;;7.10;2.63;;;26.80;99.90;;;;;;6278964;22;20007;-84
2022/07/13 11:50:45;;;;;;;5.75;2.30;;;26.90;99.90;;;;;;6250793;22;20011;-84
2022/07/13 11:53:21;;;;;;;6.32;2.63;;;27.00;99.90;;;;;;6278993;22;20050;-86
2022/07/13 11:55:47;;;;;;;6.07;2.50;;;27.10;99.90;;;;;;6251281;22;20023;-85
2022/07/13 11:58:33;;;;;;;6.47;2.10;;;27.10;99.90;;;;;;6225896;22;20023;-82
2022/07/13 12:01:00;;;;;;;4.95;2.03;;;27.30;99.90;;;;;;6278331;22;20437;-83
2022/07/13 12:03:32;;;;;;;4.50;2.22;;;27.30;99.90;;;;;;6250876;22;20500;-85
2022/07/13 12:06:07;;;;;;;3.85;1.83;;;27.30;99.90;;;;;;6251435;22;20087;-82
2022/07/13 12:08:37;;;;;;;4.32;2.05;;;27.30;99.90;;;;;;6278508;22;20007;-83
2022/07/13 12:11:05;;;;;;;3.40;1.88;;;27.20;99.90;;;;;;6279044;22;20015;-82
2022/07/13 12:13:33;;;;;;;4.68;2.00;;;27.20;99.90;;;;;;6251310;22;20020;-82
2022/07/13 12:15:59;;;;;;;3.42;1.80;;;27.20;99.90;;;;;;6278816;22;20007;-82
2022/07/13 12:18:25;;;;;;;4.00;1.85;;;27.10;99.90;;;;;;6251133;22;20084;-83
2022/07/13 12:20:51;;;;;;;4.25;2.15;;;27.10;99.90;;;;;;6226047;22;20023;-83
2022/07/13 12:23:17;;;;;;;4.53;1.80;;;27.20;99.90;;;;;;6226092;22;20011;-84
2022/07/13 12:25:43;;;;;;;3.85;2.10;;;27.40;99.90;;;;;;6251328;22;20007;-84
2022/07/13 12:28:10;;;;;;;3.97;2.00;;;27.40;99.90;;;;;;6278608;22;20003;-82
2022/07/13 12:30:54;;;;;;;6.75;2.35;;;27.30;99.90;;;;;;6279128;22;20008;-82
2022/07/13 12:33:20;;;;;;;5.00;2.03;;;27.30;99.90;;;;;;6252553;22;20019;-82
2022/07/13 12:35:45;;;;;;;2.67;2.05;;;27.30;99.90;;;;;;6227107;22;20340;-83
2022/07/13 12:38:13;;;;;;;6.63;2.67;;;27.10;99.90;;;;;;6277816;22;20012;-83
2022/07/13 12:40:52;;;;;;;3.80;2.00;;;26.90;99.90;;;;;;6278532;22;20043;-83
2022/07/13 12:43:28;;;;;;;3.78;2.13;;;26.70;99.90;;;;;;6250300;22;20016;-83
2022/07/13 12:46:03;;;;;;;4.38;2.20;;;26.70;99.90;;;;;;6250493;22;20027;-85
2022/07/13 12:48:31;;;;;;;4.80;2.30;;;26.70;99.90;;;;;;6279272;22;20065;-83
2022/07/13 12:51:07;;;;;;;5.43;2.30;;;26.70;99.90;;;;;;6277732;22;20437;-82
2022/07/13 12:53:52;;;;;;;2.88;1.92;;;26.80;99.90;;;;;;6250611;22;20015;-83
2022/07/13 12:56:23;;;;;;;7.32;2.28;;;26.90;99.90;;;;;;6277747;22;20015;-82
2022/07/13 12:58:58;;;;;;;4.10;2.20;;;26.90;99.90;;;;;;6250989;22;20016;-83
2022/07/13 13:01:29;;;;;;;;;;;26.80;99.90;;;;;;6278966;22;20012;-82
2022/07/13 13:04:07;;;;;;;3.97;2.25;;;26.90;99.90;;;;;;6250274;22;19912;-83
2022/07/13 13:06:33;;;;;;;4.03;2.00;;;26.80;99.90;;;;;;6277715;22;20426;-84
2022/07/13 13:09:13;;;;;;;4.47;2.13;;;26.60;99.90;;;;;;6250976;22;20012;-82
2022/07/13 13:11:40;;;;;;;3.90;2.35;;;26.70;99.90;;;;;;6278649;22;20075;-83
2022/07/13 13:14:06;;;;;;;3.83;2.20;;;26.70;99.90;;;;;;6278131;22;20016;-81
2022/07/13 13:16:32;;;;;;;4.28;2.22;;;26.90;99.90;;;;;;6251188;22;20307;-82
2022/07/13 13:18:58;;;;;;;5.60;2.00;;;26.90;99.90;;;;;;6250992;22;20011;-83
2022/07/13 13:21:24;;;;;;;3.55;1.73;;;26.80;99.90;;;;;;6278359;22;20057;-84
2022/07/13 13:23:49;;;;;;;5.25;2.10;;;27.00;99.90;;;;;;6278790;22;20364;-82
2022/07/13 13:26:15;;;;;;;5.32;2.15;;;27.10;99.90;;;;;;6251458;22;20024;-86
2022/07/13 13:31:26;;;;;;;5.40;2.97;;;27.20;99.90;;;;;;6253250;22;20022;-83
2022/07/13 13:33:52;;;;;;;6.20;2.40;;;27.30;99.90;;;;;;6280681;22;20011;-82
2022/07/13 13:36:18;;;;;;;6.70;2.55;;;27.30;99.90;;;;;;6280587;22;20018;-84
2022/07/13 13:38:44;;;;;;;3.92;2.20;;;27.40;99.90;;;;;;6279901;22;20008;-81
2022/07/13 13:41:10;;;;;;;4.22;1.92;;;27.40;99.90;;;;;;6280437;22;20010;-83
2022/07/13 13:43:35;;;;;;;3.75;1.65;;;27.40;99.90;;;;;;6280228;22;20416;-82
2022/07/13 13:46:01;;;;;;;7.28;2.25;;;27.10;99.90;;;;;;6252942;22;20022;-82
2022/07/13 13:48:27;;;;;;;5.97;2.10;;;26.90;99.90;;;;;;6281276;22;20061;-83
2022/07/13 13:50:52;;;;;;;7.63;2.25;;;26.80;99.90;;;;;;6280608;22;20307;-83
2022/07/13 13:53:18;;;;;;;9.65;3.13;;;26.90;99.90;;;;;;6227831;22;20021;-83
2022/07/13 13:55:44;;;;;;;4.63;2.30;;;26.80;99.90;;;;;;6253903;22;20023;-86
2022/07/13 13:58:10;;;;;;;5.78;2.38;;;26.70;99.90;;;;;;6253711;22;20003;-84
2022/07/13 14:00:36;;;;;;;3.65;2.00;;;26.60;99.90;;;;;;6279884;22;20329;-83
2022/07/13 14:03:04;;;;;;;4.78;2.10;;;26.60;99.90;;;;;;6253734;22;20027;-83
2022/07/13 14:05:30;;;;;;;4.30;2.38;;;26.50;99.90;;;;;;6280571;22;20057;-82
2022/07/13 14:07:56;;;;;;;5.88;2.63;;;26.50;99.90;;;;;;6280770;22;20062;-82
2022/07/13 14:10:23;;;;;;;4.25;2.40;;;26.50;99.90;;;;;;6280593;22;20004;-84
2022/07/13 14:12:50;;;;;;;7.55;2.50;;;26.50;99.90;;;;;;6253847;22;20086;-80
2022/07/13 14:15:15;;;;;;;6.53;2.20;;;26.30;99.90;;;;;;6253423;22;20074;-83
2022/07/13 14:17:41;;;;;;;15.65;2.67;;;26.20;99.90;;;;;;6280352;22;20015;-85
2022/07/13 14:20:07;;;;;;;8.27;2.70;;;26.20;99.90;;;;;;6253344;22;20042;-83
2022/07/13 14:22:34;;;;;;;5.43;2.50;;;26.30;99.90;;;;;;6279484;22;20008;-84
2022/07/13 14:24:59;;;;;;;7.47;2.20;;;26.30;99.90;;;;;;6227451;22;20424;-85
2022/07/13 14:27:27;;;;;;;10.07;2.97;;;26.40;99.90;;;;;;6252402;22;20069;-82
2022/07/13 14:29:53;;;;;;;6.25;2.22;;;26.20;99.90;;;;;;6252748;22;20008;-83
2022/07/13 14:32:22;;;;;;;4.45;2.28;;;26.00;99.90;;;;;;6228222;22;20090;-80
2022/07/13 14:34:48;;;;;;;5.88;2.30;;;25.80;99.90;;;;;;6281252;22;20008;-81
2022/07/13 14:37:18;;;;;;;7.53;2.30;;;25.70;99.90;;;;;;6280210;22;20389;-83
2022/07/13 14:39:44;;;;;;;4.88;2.20;;;25.50;99.90;;;;;;6279967;22;20015;-82
2022/07/13 14:42:10;;;;;;;6.10;2.30;;;25.50;99.90;;;;;;6279589;22;20047;-84
2022/07/13 14:44:37;;;;;;;6.95;2.25;;;25.60;99.90;;;;;;6254918;22;20027;-80
2022/07/13 14:47:03;;;;;;;4.75;2.00;;;25.80;99.90;;;;;;6285421;22;20498;-81
2022/07/13 14:49:29;;;;;;;7.05;2.15;;;25.80;99.90;;;;;;6260264;22;20039;-79
2022/07/13 14:51:55;;;;;;;7.82;2.10;;;25.90;99.90;;;;;;6262486;22;20019;-79
2022/07/13 14:54:22;;;;;;;6.25;2.00;;;25.90;99.90;;;;;;6286689;22;20459;-82
2022/07/13 14:56:48;;;;;;;5.55;1.90;;;26.00;99.90;;;;;;6254688;22;20050;-81
2022/07/13 14:59:14;;;;;;;6.38;2.20;;;26.10;99.90;;;;;;6252637;22;20016;-83
2022/07/13 15:01:41;;;;;;;7.75;1.95;;;26.10;99.90;;;;;;6278955;22;20455;-83
2022/07/13 15:04:11;;;;;;;5.22;1.95;;;26.20;99.90;;;;;;6252425;22;20093;-82
2022/07/13 15:06:39;;;;;;;6.28;2.30;;;26.10;99.90;;;;;;6252244;22;20020;-82
2022/07/13 15:09:05;;;;;;;7.80;2.00;;;26.10;99.90;;;;;;6277647;22;20014;-82
2022/07/13 15:11:30;;;;;;;11.70;2.78;;;25.80;99.90;;;;;;6275719;22;20086;-81
2022/07/13 15:13:56;;;;;;;9.38;2.20;;;25.60;99.90;;;;;;6250446;22;20019;-82
2022/07/13 15:16:22;;;;;;;7.28;1.98;;;25.40;99.90;;;;;;6279213;22;20307;-83
2022/07/13 15:18:47;;;;;;;6.13;2.00;;;25.20;99.90;;;;;;6279236;22;20023;-82
2022/07/13 15:21:13;;;;;;;8.15;2.20;;;25.40;99.90;;;;;;6251635;22;20020;-82
2022/07/13 15:23:39;;;;;;;7.10;2.17;;;25.30;99.90;;;;;;6278200;22;20011;-82
2022/07/13 15:26:05;;;;;;;10.27;1.92;;;25.50;99.90;;;;;;6251021;22;19996;-83
2022/07/13 15:28:31;;;;;;;10.93;2.00;;;25.50;99.90;;;;;;6251834;22;20018;-84
2022/07/13 15:30:56;;;;;;;5.72;1.90;;;25.50;99.90;;;;;;6277727;22;20015;-82
2022/07/13 15:33:23;;;;;;;5.20;1.83;;;25.40;99.90;;;;;;6251047;22;20015;-83
2022/07/13 15:35:49;;;;;;;7.57;2.22;;;25.30;99.90;;;;;;6251747;22;20020;-83
2022/07/13 15:38:15;;;;;;;8.32;2.15;;;25.40;99.90;;;;;;6278995;22;20090;-83
2022/07/13 15:43:25;;;;;;;8.80;2.20;;;25.30;99.90;;;;;;6251687;22;20020;-83
2022/07/13 15:45:50;;;;;;;7.00;2.10;;;25.20;99.90;;;;;;6226991;22;20039;-83
2022/07/13 15:48:16;;;;;;;10.38;2.15;;;25.10;99.90;;;;;;6253009;22;20011;-82
2022/07/13 15:50:42;;;;;;;10.63;2.20;;;25.00;99.90;;;;;;6252706;22;20011;-85
2022/07/13 15:53:07;;;;;;;8.77;2.50;;;24.90;99.90;;;;;;6252500;22;20064;-82
2022/07/13 15:55:33;;;;;;;10.43;2.10;;;24.80;99.90;;;;;;6251295;22;20023;-83
2022/07/13 15:57:59;;;;;;;11.05;2.25;;;24.90;99.90;;;;;;6251157;22;20015;-82
2022/07/13 16:00:25;;;;;;;11.35;2.42;;;24.90;99.90;;;;;;6251164;22;20069;-82
2022/07/13 16:02:50;;;;;;;8.35;2.33;;;24.90;99.90;;;;;;6251955;22;20079;-83